Terminal Aerodrome Forecast
Issued by NWS Brownsville, TX

Home | Current Version | Previous Version | Text Only | Print | Product List | Glossary On
Versions: 1 2 3 4 5 6 7 8 9 10 11 12 13 14 15 16 17 18 19 20 21 22 23 24 25
000
FTUS44 KBRO 212330
TAFBRO
TAF
KBRO 212330Z 2200/2224 15015KT P6SM BKN015 BKN035
      TEMPO 2200/2202 SCT020
     FM220200 14008KT 6SM BR VCSH OVC007
      TEMPO 2208/2212 4SM BR OVC005
     FM221200 35012KT 4SM -RADZ OVC007
     FM222100 34009KT P6SM OVC010=

USA.gov is the U.S. government's official web portal to all federal, state and local government web resources and services.